createdAt,value
2022-10-18T00:00:06.014Z,16.53
2022-10-18T00:02:32.589Z,17.43
2022-10-18T00:04:59.163Z,16.67
2022-10-18T00:07:25.636Z,14.93
2022-10-18T00:09:52.417Z,16.07
2022-10-18T00:12:18.943Z,15.70
2022-10-18T00:14:49.791Z,15.93
2022-10-18T00:17:16.748Z,17.17
2022-10-18T00:19:43.325Z,15.50
2022-10-18T00:22:09.815Z,16.03
2022-10-18T00:24:36.340Z,16.27
2022-10-18T00:27:02.818Z,16.90
2022-10-18T00:29:29.306Z,16.60
2022-10-18T00:31:55.785Z,15.90
2022-10-18T00:34:22.294Z,16.57
2022-10-18T00:36:48.855Z,17.07
2022-10-18T00:39:19.063Z,17.40
2022-10-18T00:41:46.493Z,15.70
2022-10-18T00:44:12.936Z,18.07
2022-10-18T00:46:42.554Z,17.97
2022-10-18T00:49:15.793Z,17.57
2022-10-18T00:51:50.030Z,18.60
2022-10-18T00:54:18.147Z,18.03
2022-10-18T00:56:45.452Z,18.30
2022-10-18T00:59:14.853Z,19.57
2022-10-18T01:01:41.506Z,22.00
2022-10-18T01:04:08.073Z,20.43
2022-10-18T01:06:46.608Z,18.90
2022-10-18T01:09:48.663Z,19.97
2022-10-18T01:12:47.613Z,18.67
2022-10-18T01:15:29.168Z,22.80
2022-10-18T01:18:46.827Z,22.00
2022-10-18T01:21:31.855Z,22.73
2022-10-18T01:24:30.895Z,20.87
2022-10-18T01:27:00.247Z,22.00
2022-10-18T01:29:53.250Z,21.70
2022-10-18T01:32:24.905Z,21.03
2022-10-18T01:34:55.926Z,24.73
2022-10-18T01:37:23.194Z,24.60
2022-10-18T01:39:55.040Z,27.03
2022-10-18T01:42:21.902Z,24.00
2022-10-18T01:44:52.122Z,24.40
2022-10-18T01:47:19.678Z,23.90
2022-10-18T01:49:46.754Z,23.63
2022-10-18T01:52:15.239Z,24.17
2022-10-18T01:54:49.030Z,24.30
2022-10-18T01:57:24.809Z,23.10
2022-10-18T01:59:57.529Z,23.37
2022-10-18T02:02:34.737Z,24.30
2022-10-18T02:05:25.816Z,24.27
2022-10-18T02:08:19.271Z,24.77
2022-10-18T02:10:50.623Z,24.37
2022-10-18T02:13:20.754Z,24.17
2022-10-18T02:15:50.599Z,24.20
2022-10-18T02:18:36.508Z,22.90
2022-10-18T02:21:05.703Z,24.43
2022-10-18T02:23:35.043Z,24.47
2022-10-18T02:26:02.153Z,23.93
2022-10-18T02:28:28.755Z,25.77
2022-10-18T02:31:10.806Z,25.70
2022-10-18T02:34:04.533Z,27.13
2022-10-18T02:36:46.366Z,26.70
2022-10-18T02:39:16.738Z,26.67
2022-10-18T02:41:43.674Z,26.63
2022-10-18T02:44:10.957Z,25.53
2022-10-18T02:46:37.615Z,27.77
2022-10-18T02:49:04.162Z,27.07
2022-10-18T02:51:31.220Z,26.37
2022-10-18T02:53:57.712Z,27.10
2022-10-18T02:56:24.281Z,27.03
2022-10-18T02:58:50.746Z,27.53
2022-10-18T03:01:17.336Z,28.90
2022-10-18T03:03:43.835Z,26.53
2022-10-18T03:06:10.404Z,27.90
2022-10-18T03:08:36.896Z,27.63
2022-10-18T03:11:03.451Z,26.43
2022-10-18T03:16:01.887Z,26.13
2022-10-18T03:18:28.447Z,25.20
2022-10-18T03:20:54.955Z,25.20
2022-10-18T03:23:21.799Z,24.87
2022-10-18T03:25:48.365Z,24.13
2022-10-18T03:28:14.865Z,25.53
2022-10-18T03:30:41.359Z,24.03
2022-10-18T03:33:07.841Z,24.17
2022-10-18T03:35:34.648Z,24.37
2022-10-18T03:38:01.206Z,23.87
2022-10-18T03:40:27.899Z,22.20
2022-10-18T03:42:54.410Z,23.23
2022-10-18T03:45:21.088Z,21.97
2022-10-18T03:47:47.654Z,21.10
2022-10-18T03:50:14.236Z,22.77
2022-10-18T03:52:40.776Z,21.27
2022-10-18T03:55:07.734Z,19.77
2022-10-18T03:57:34.312Z,20.80
2022-10-18T04:00:00.882Z,18.87
2022-10-18T04:02:27.382Z,17.90
2022-10-18T04:04:53.850Z,18.30
2022-10-18T04:07:20.360Z,17.33
2022-10-18T04:09:46.905Z,18.30
2022-10-18T04:12:13.486Z,18.73
2022-10-18T04:14:39.970Z,19.77
2022-10-18T04:17:06.495Z,18.90
2022-10-18T04:19:32.996Z,19.80
2022-10-18T04:21:59.493Z,17.57
2022-10-18T04:24:26.014Z,17.37
2022-10-18T04:26:52.511Z,18.00
2022-10-18T04:29:18.975Z,17.67
2022-10-18T04:31:45.497Z,19.30
2022-10-18T04:34:12.082Z,18.27
2022-10-18T04:36:38.588Z,17.93
2022-10-18T04:39:05.066Z,17.53
2022-10-18T04:41:31.607Z,17.90
2022-10-18T04:43:58.080Z,18.33
2022-10-18T04:46:24.594Z,18.83
2022-10-18T04:48:51.099Z,20.10
2022-10-18T04:51:17.621Z,20.07
2022-10-18T04:53:44.124Z,19.43
2022-10-18T04:56:10.841Z,22.03
2022-10-18T04:58:37.334Z,21.60
2022-10-18T05:01:07.743Z,23.23
2022-10-18T05:03:34.462Z,23.77
2022-10-18T05:06:02.575Z,23.63
2022-10-18T05:08:30.729Z,25.80
2022-10-18T05:10:57.437Z,26.07
2022-10-18T05:13:24.078Z,27.20
2022-10-18T05:15:50.868Z,29.30
2022-10-18T05:18:17.513Z,26.93
2022-10-18T05:20:44.126Z,27.40
2022-10-18T05:23:10.964Z,29.63
2022-10-18T05:25:42.062Z,32.60
2022-10-18T05:28:10.777Z,31.40
2022-10-18T05:30:47.858Z,38.30
2022-10-18T05:33:14.376Z,40.47
2022-10-18T05:35:40.857Z,35.27
2022-10-18T05:38:07.452Z,39.23
2022-10-18T05:40:33.993Z,37.87
2022-10-18T05:43:00.535Z,37.47
2022-10-18T05:45:27.076Z,41.23
2022-10-18T05:47:54.794Z,43.87
2022-10-18T05:50:21.344Z,40.13
2022-10-18T05:52:47.873Z,36.70
2022-10-18T05:55:14.347Z,38.57
2022-10-18T05:57:40.816Z,35.07
2022-10-18T06:00:07.893Z,34.43
2022-10-18T06:02:34.600Z,38.20
2022-10-18T06:05:01.084Z,36.20
2022-10-18T06:07:27.579Z,35.17
2022-10-18T06:09:54.033Z,35.03
2022-10-18T06:12:20.529Z,33.67
2022-10-18T06:14:47.700Z,33.40
2022-10-18T06:17:14.283Z,35.57
2022-10-18T06:19:40.840Z,43.60
2022-10-18T06:22:07.359Z,43.27
2022-10-18T06:24:33.839Z,42.57
2022-10-18T06:27:00.422Z,36.37
2022-10-18T06:29:27.028Z,52.97
2022-10-18T06:31:53.509Z,54.90
2022-10-18T06:34:20.133Z,66.10
2022-10-18T06:36:46.626Z,83.23
2022-10-18T06:39:13.138Z,54.53
2022-10-18T06:41:39.600Z,60.47
2022-10-18T06:44:13.658Z,92.13
2022-10-18T06:46:44.311Z,67.47
2022-10-18T06:49:13.082Z,56.03
2022-10-18T06:51:43.677Z,51.50
2022-10-18T06:54:17.964Z,42.10
2022-10-18T06:56:45.454Z,38.27
2022-10-18T06:59:12.120Z,32.77
2022-10-18T07:01:38.866Z,31.37
2022-10-18T07:04:05.481Z,28.30
2022-10-18T07:06:31.968Z,29.87
2022-10-18T07:08:58.484Z,27.83
2022-10-18T07:11:26.703Z,28.70
2022-10-18T07:13:54.992Z,28.50
2022-10-18T07:16:21.638Z,27.33
2022-10-18T07:18:50.627Z,28.57
2022-10-18T07:21:19.799Z,27.10
2022-10-18T07:23:47.043Z,25.43
2022-10-18T07:26:17.880Z,23.77
2022-10-18T07:28:46.242Z,25.70
2022-10-18T07:31:13.246Z,25.33
2022-10-18T07:33:40.160Z,25.70
2022-10-18T07:36:10.234Z,26.13
2022-10-18T07:38:37.074Z,25.23
2022-10-18T07:41:07.074Z,25.60
2022-10-18T07:43:34.657Z,24.47
2022-10-18T07:46:03.340Z,22.87
2022-10-18T07:48:30.165Z,23.30
2022-10-18T07:51:01.192Z,23.17
2022-10-18T07:53:28.871Z,25.30
2022-10-18T07:56:01.337Z,25.07
2022-10-18T07:58:31.968Z,26.37
2022-10-18T08:01:02.363Z,23.50
2022-10-18T08:03:28.867Z,23.17
2022-10-18T08:05:55.639Z,23.03
2022-10-18T08:08:23.870Z,25.80
2022-10-18T08:10:50.457Z,24.87
2022-10-18T08:13:17.327Z,25.97
2022-10-18T08:15:44.175Z,24.57
2022-10-18T08:18:10.809Z,25.43
2022-10-18T08:20:37.874Z,22.07
2022-10-18T08:23:05.175Z,21.40
2022-10-18T08:25:31.848Z,23.07
2022-10-18T08:27:58.581Z,22.77
2022-10-18T08:30:25.129Z,21.97
2022-10-18T08:32:51.663Z,20.90
2022-10-18T08:35:18.326Z,21.27
2022-10-18T08:37:45.406Z,21.27
2022-10-18T08:40:15.166Z,20.83
2022-10-18T08:43:09.405Z,20.27
2022-10-18T08:45:43.226Z,20.43
2022-10-18T08:48:39.401Z,20.23
2022-10-18T08:51:18.357Z,20.37
2022-10-18T08:54:12.691Z,20.47
2022-10-18T08:56:43.086Z,19.87
2022-10-18T08:59:11.951Z,19.23
2022-10-18T09:01:56.366Z,18.60
2022-10-18T09:04:34.927Z,18.00
2022-10-18T09:07:16.615Z,18.93
2022-10-18T09:09:55.102Z,18.23
2022-10-18T09:12:59.354Z,20.43
2022-10-18T09:15:40.147Z,18.63
2022-10-18T09:18:46.349Z,19.13
2022-10-18T09:21:53.004Z,20.47
2022-10-18T09:24:37.725Z,20.17
2022-10-18T09:27:10.736Z,22.00
2022-10-18T09:29:40.424Z,23.67
2022-10-18T09:32:32.299Z,20.83
2022-10-18T09:35:06.297Z,21.97
2022-10-18T09:37:34.991Z,19.50
2022-10-18T09:40:19.123Z,18.90
2022-10-18T09:43:32.255Z,18.23
2022-10-18T09:45:59.129Z,16.70
2022-10-18T09:48:40.573Z,17.20
2022-10-18T09:51:21.828Z,17.33
2022-10-18T09:54:08.953Z,16.67
2022-10-18T09:56:48.021Z,16.00
2022-10-18T09:59:38.540Z,17.20
2022-10-18T10:02:06.248Z,15.23
2022-10-18T10:04:33.070Z,14.80
2022-10-18T10:07:01.854Z,16.87
2022-10-18T10:09:40.756Z,16.77
2022-10-18T10:12:26.806Z,15.87
2022-10-18T10:14:53.405Z,15.13
2022-10-18T10:17:29.767Z,14.57
2022-10-18T10:20:04.414Z,13.43
2022-10-18T10:22:38.348Z,13.93
2022-10-18T10:25:06.121Z,14.40
2022-10-18T10:27:46.113Z,14.03
2022-10-18T10:30:34.337Z,13.20
2022-10-18T10:33:01.507Z,13.23
2022-10-18T10:35:53.808Z,14.87
2022-10-18T10:38:26.353Z,15.83
2022-10-18T10:40:53.306Z,14.47
2022-10-18T10:43:38.067Z,14.80
2022-10-18T10:46:08.070Z,14.77
2022-10-18T10:49:35.018Z,13.90
2022-10-18T10:52:08.609Z,14.37
2022-10-18T10:54:39.139Z,14.43
2022-10-18T10:57:12.558Z,14.80
2022-10-18T10:59:47.975Z,14.53
2022-10-18T11:02:15.072Z,14.73
2022-10-18T11:04:42.543Z,12.73
2022-10-18T11:07:08.967Z,12.63
2022-10-18T11:09:48.169Z,12.07
2022-10-18T11:12:23.897Z,13.40
2022-10-18T11:14:56.290Z,12.57
2022-10-18T11:17:22.732Z,12.23
2022-10-18T11:20:07.265Z,11.47
2022-10-18T11:22:38.847Z,10.00
2022-10-18T11:25:06.079Z,11.83
2022-10-18T11:27:57.894Z,10.73
2022-10-18T11:30:30.304Z,10.50
2022-10-18T11:33:06.720Z,10.27
2022-10-18T11:35:44.405Z,8.87
2022-10-18T11:38:24.825Z,6.73
2022-10-18T11:41:17.236Z,4.63
2022-10-18T11:44:02.349Z,4.93
2022-10-18T11:46:32.784Z,3.80
2022-10-18T11:49:22.584Z,3.30
2022-10-18T11:52:12.805Z,3.90
2022-10-18T11:54:45.162Z,3.23
2022-10-18T11:57:24.147Z,3.30
2022-10-18T11:59:56.761Z,3.77
2022-10-18T12:02:54.213Z,3.83
2022-10-18T12:05:24.044Z,4.17
2022-10-18T12:08:02.499Z,3.60
2022-10-18T12:10:45.826Z,4.17
2022-10-18T12:13:25.549Z,4.43
2022-10-18T12:15:52.508Z,3.23
2022-10-18T12:18:23.417Z,3.17
2022-10-18T12:20:54.047Z,3.30
2022-10-18T12:23:29.902Z,2.97
2022-10-18T12:26:03.438Z,2.87
2022-10-18T12:28:33.043Z,2.60
2022-10-18T12:31:20.188Z,2.87
2022-10-18T12:33:50.388Z,2.43
2022-10-18T12:36:22.643Z,2.27
2022-10-18T12:38:58.655Z,2.57
2022-10-18T12:41:28.209Z,2.23
2022-10-18T12:44:06.480Z,2.93
2022-10-18T12:46:57.821Z,2.43
2022-10-18T12:49:29.763Z,2.53
2022-10-18T12:51:59.684Z,2.27
2022-10-18T12:54:34.415Z,2.37
2022-10-18T12:57:02.854Z,2.50
2022-10-18T12:59:29.260Z,3.00
2022-10-18T13:01:55.751Z,2.53
2022-10-18T13:04:28.473Z,2.80
2022-10-18T13:07:00.881Z,2.77
2022-10-18T13:09:30.345Z,2.13
2022-10-18T13:12:09.257Z,2.47
2022-10-18T13:15:12.721Z,2.47
2022-10-18T13:17:47.109Z,2.70
2022-10-18T13:20:31.934Z,2.17
2022-10-18T13:23:26.136Z,2.20
2022-10-18T13:26:04.970Z,2.10
2022-10-18T13:28:50.144Z,2.50
2022-10-18T13:31:44.207Z,1.93
2022-10-18T13:34:17.813Z,2.37
2022-10-18T13:36:44.678Z,2.63
2022-10-18T13:39:20.389Z,2.80
2022-10-18T13:41:46.840Z,3.00
2022-10-18T13:44:37.386Z,2.27
2022-10-18T13:47:03.814Z,2.90
2022-10-18T13:49:39.213Z,2.40
2022-10-18T13:52:36.702Z,2.30
2022-10-18T13:55:14.613Z,2.60
2022-10-18T13:57:49.801Z,2.10
2022-10-18T14:00:40.272Z,2.63
2022-10-18T14:03:58.280Z,2.83
2022-10-18T14:06:40.327Z,2.00
2022-10-18T14:09:32.550Z,2.53
2022-10-18T14:12:43.681Z,2.23
2022-10-18T14:15:32.803Z,2.60
2022-10-18T14:18:04.845Z,2.50
2022-10-18T14:20:48.955Z,2.20
2022-10-18T14:23:22.093Z,2.50
2022-10-18T14:25:48.846Z,2.03
2022-10-18T14:28:31.265Z,1.93
2022-10-18T14:31:09.355Z,2.30
2022-10-18T14:33:41.546Z,2.63
2022-10-18T14:36:22.060Z,2.63
2022-10-18T14:38:58.990Z,2.20
2022-10-18T14:41:34.729Z,2.20
2022-10-18T14:44:21.465Z,1.50
2022-10-18T14:47:14.994Z,2.40
2022-10-18T14:49:46.158Z,2.00
2022-10-18T14:52:17.683Z,2.50
2022-10-18T14:54:45.200Z,2.87
2022-10-18T14:57:23.539Z,2.27
2022-10-18T14:59:57.034Z,2.37
2022-10-18T15:02:26.747Z,2.00
2022-10-18T15:04:59.691Z,2.43
2022-10-18T15:07:29.316Z,2.50
2022-10-18T15:09:59.227Z,2.27
2022-10-18T15:12:29.627Z,2.50
2022-10-18T15:15:00.273Z,1.93
2022-10-18T15:17:29.975Z,2.60
2022-10-18T15:20:01.954Z,2.10
2022-10-18T15:22:33.228Z,2.73
2022-10-18T15:25:05.963Z,2.40
2022-10-18T15:27:36.462Z,2.60
2022-10-18T15:30:28.921Z,2.60
2022-10-18T15:33:04.481Z,2.70
2022-10-18T15:35:34.724Z,2.37
2022-10-18T15:38:16.813Z,2.23
2022-10-18T15:40:44.151Z,1.97
2022-10-18T15:43:22.826Z,2.23
2022-10-18T15:45:51.512Z,1.77
2022-10-18T15:48:39.635Z,2.27
2022-10-18T15:51:12.568Z,2.00
2022-10-18T15:53:53.657Z,2.43
2022-10-18T15:56:38.177Z,2.00
2022-10-18T15:59:20.692Z,2.47
2022-10-18T16:01:47.264Z,2.30
2022-10-18T16:04:25.909Z,2.50
2022-10-18T16:06:54.215Z,2.30
2022-10-18T16:09:22.074Z,2.17
2022-10-18T16:11:56.401Z,2.40
2022-10-18T16:14:23.745Z,1.80
2022-10-18T16:16:54.444Z,2.47
2022-10-18T16:19:22.706Z,2.23
2022-10-18T16:21:50.774Z,1.90
2022-10-18T16:24:17.781Z,2.73
2022-10-18T16:26:44.376Z,2.40
2022-10-18T16:29:33.045Z,2.77
2022-10-18T16:32:00.018Z,2.27
2022-10-18T16:34:27.134Z,2.10
2022-10-18T16:36:54.518Z,2.30
2022-10-18T16:39:22.694Z,2.20
2022-10-18T16:42:06.992Z,1.77
2022-10-18T16:44:33.464Z,2.23
2022-10-18T16:46:59.995Z,2.17
2022-10-18T16:49:26.765Z,2.40
2022-10-18T16:51:54.198Z,2.97
2022-10-18T16:54:20.836Z,2.23
2022-10-18T16:56:50.352Z,2.53
2022-10-18T16:59:31.070Z,2.00
2022-10-18T17:01:57.895Z,2.10
2022-10-18T17:04:24.542Z,2.03
2022-10-18T17:06:52.659Z,2.13
2022-10-18T17:09:19.171Z,2.70
2022-10-18T17:11:45.699Z,2.83
2022-10-18T17:14:12.173Z,2.97
2022-10-18T17:16:39.127Z,6.30
2022-10-18T17:19:07.964Z,4.63
2022-10-18T17:21:34.585Z,6.93
2022-10-18T17:24:06.005Z,7.90
2022-10-18T17:26:33.783Z,5.80
2022-10-18T17:29:04.050Z,4.50
2022-10-18T17:31:31.698Z,4.07
2022-10-18T17:33:59.790Z,2.90
2022-10-18T17:36:26.290Z,2.87
2022-10-18T17:38:54.219Z,2.90
2022-10-18T17:41:21.306Z,3.83
2022-10-18T17:43:48.439Z,2.63
2022-10-18T17:46:15.898Z,2.20
2022-10-18T17:48:42.824Z,2.60
2022-10-18T17:51:11.384Z,2.70
2022-10-18T17:53:38.285Z,2.47
2022-10-18T17:56:05.688Z,2.67
2022-10-18T17:58:32.380Z,2.20
2022-10-18T18:01:09.649Z,1.73
2022-10-18T18:04:07.167Z,2.13
2022-10-18T18:06:36.263Z,2.20
2022-10-18T18:09:14.192Z,2.30
2022-10-18T18:11:43.545Z,1.90
2022-10-18T18:14:11.580Z,2.23
2022-10-18T18:16:41.240Z,1.93
2022-10-18T18:19:09.957Z,2.10
2022-10-18T18:21:37.109Z,1.53
2022-10-18T18:24:03.891Z,1.80
2022-10-18T18:26:35.159Z,1.67
2022-10-18T18:31:34.332Z,1.53
2022-10-18T18:34:05.338Z,1.60
2022-10-18T18:36:32.685Z,1.47
2022-10-18T18:38:59.395Z,1.37
2022-10-18T18:41:27.647Z,1.50
2022-10-18T18:43:54.293Z,1.20
2022-10-18T18:46:22.081Z,1.23
2022-10-18T18:48:49.058Z,1.30
2022-10-18T18:51:18.638Z,1.00
2022-10-18T18:53:46.855Z,1.67
2022-10-18T18:56:24.289Z,1.17
2022-10-18T18:58:52.519Z,1.70
2022-10-18T19:01:22.210Z,1.70
2022-10-18T19:03:51.526Z,1.40
2022-10-18T19:06:27.753Z,1.20
2022-10-18T19:09:00.669Z,1.00
2022-10-18T19:11:29.626Z,1.33
2022-10-18T19:13:56.225Z,1.80
2022-10-18T19:16:24.677Z,1.63
2022-10-18T19:18:56.082Z,1.73
2022-10-18T19:21:24.659Z,1.60
2022-10-18T19:23:51.588Z,1.57
2022-10-18T19:26:30.295Z,1.40
2022-10-18T19:29:01.875Z,1.57
2022-10-18T19:31:28.876Z,2.00
2022-10-18T19:33:59.788Z,1.60
2022-10-18T19:36:27.840Z,1.83
2022-10-18T19:38:54.642Z,1.70
2022-10-18T19:41:21.710Z,1.30
2022-10-18T19:43:48.456Z,2.17
2022-10-18T19:46:15.105Z,1.70
2022-10-18T19:48:41.964Z,1.83
2022-10-18T19:51:09.751Z,1.87
2022-10-18T19:53:37.013Z,1.30
2022-10-18T19:56:05.416Z,2.03
2022-10-18T19:58:32.269Z,1.50
2022-10-18T20:01:00.200Z,2.00
2022-10-18T20:03:30.307Z,2.23
2022-10-18T20:06:02.566Z,2.20
2022-10-18T20:08:32.378Z,1.87
2022-10-18T20:11:14.617Z,2.20
2022-10-18T20:13:41.336Z,1.90
2022-10-18T20:16:10.395Z,1.80
2022-10-18T20:18:37.422Z,1.87
2022-10-18T20:21:05.908Z,1.90
2022-10-18T20:23:34.653Z,2.03
2022-10-18T20:26:04.593Z,2.20
2022-10-18T20:28:32.672Z,1.80
2022-10-18T20:30:59.976Z,1.90
2022-10-18T20:33:26.448Z,1.60
2022-10-18T20:35:53.037Z,2.03
2022-10-18T20:38:20.052Z,1.77
2022-10-18T20:40:46.641Z,1.47
2022-10-18T20:43:13.178Z,1.60
2022-10-18T20:45:39.691Z,1.83
2022-10-18T20:48:06.277Z,1.50
2022-10-18T20:50:32.774Z,1.50
2022-10-18T20:52:59.276Z,1.50
2022-10-18T20:55:25.769Z,1.30
2022-10-18T20:57:52.258Z,1.57
2022-10-18T21:00:18.790Z,1.80
2022-10-18T21:02:45.332Z,1.77
2022-10-18T21:05:12.027Z,1.50
2022-10-18T21:07:38.510Z,1.70
2022-10-18T21:10:05.568Z,2.00
2022-10-18T21:12:32.254Z,2.20
2022-10-18T21:14:59.345Z,1.80
2022-10-18T21:17:25.908Z,1.80
2022-10-18T21:19:53.695Z,1.73
2022-10-18T21:22:20.187Z,1.33
2022-10-18T21:24:46.695Z,1.47
2022-10-18T21:27:13.754Z,1.60
2022-10-18T21:29:40.235Z,2.30
2022-10-18T21:32:06.736Z,2.07
2022-10-18T21:34:33.309Z,1.83
2022-10-18T21:36:59.820Z,1.80
2022-10-18T21:39:26.325Z,1.70
2022-10-18T21:41:52.888Z,1.87
2022-10-18T21:44:19.496Z,1.60
2022-10-18T21:46:46.904Z,1.40
2022-10-18T21:49:14.322Z,1.90
2022-10-18T21:51:41.584Z,1.50
2022-10-18T21:54:14.676Z,1.87
2022-10-18T21:56:41.724Z,1.63
2022-10-18T21:59:08.290Z,1.67
2022-10-18T22:01:37.894Z,1.50
2022-10-18T22:04:07.940Z,1.20
2022-10-18T22:06:36.394Z,1.30
2022-10-18T22:09:08.220Z,1.80
2022-10-18T22:11:38.432Z,1.40
2022-10-18T22:14:04.951Z,1.37
2022-10-18T22:16:31.962Z,1.70
2022-10-18T22:19:00.987Z,1.10
2022-10-18T22:21:28.286Z,1.40
2022-10-18T22:23:59.103Z,1.40
2022-10-18T22:26:29.615Z,1.73
2022-10-18T22:29:04.325Z,1.20
2022-10-18T22:31:33.509Z,1.20
2022-10-18T22:34:05.159Z,1.10
2022-10-18T22:36:32.265Z,1.57
2022-10-18T22:39:00.081Z,1.47
2022-10-18T22:41:26.782Z,1.43
2022-10-18T22:43:55.548Z,1.47
2022-10-18T22:46:24.171Z,1.50
2022-10-18T22:48:50.683Z,1.40
2022-10-18T22:51:17.888Z,1.47
2022-10-18T22:53:45.171Z,1.63
2022-10-18T22:56:15.189Z,1.20
2022-10-18T22:58:41.794Z,1.30
2022-10-18T23:01:10.922Z,1.10
2022-10-18T23:03:38.312Z,1.20
2022-10-18T23:06:17.172Z,1.20
2022-10-18T23:08:43.637Z,1.30
2022-10-18T23:11:10.130Z,1.53
2022-10-18T23:13:39.461Z,1.50
2022-10-18T23:16:06.596Z,1.53
2022-10-18T23:18:33.599Z,1.13
2022-10-18T23:21:08.069Z,1.40
2022-10-18T23:23:38.143Z,1.23
2022-10-18T23:26:07.191Z,1.30
2022-10-18T23:28:38.955Z,1.30
2022-10-18T23:31:28.487Z,1.60
2022-10-18T23:33:57.060Z,1.40
2022-10-18T23:36:24.266Z,1.57
2022-10-18T23:38:51.169Z,1.27
2022-10-18T23:41:18.171Z,1.43
2022-10-18T23:43:45.003Z,1.40
2022-10-18T23:46:12.634Z,1.50
2022-10-18T23:48:39.269Z,1.50
2022-10-18T23:51:06.498Z,1.80
2022-10-18T23:53:33.366Z,1.40
2022-10-18T23:56:02.954Z,1.27
2022-10-18T23:58:31.366Z,1.30
